Weather at Batavia Airport

Public forecast

Using degrees Celsius for public forecast. Weather courtesy of forecast.io.

Closest aviation weather report (METAR) to Batavia Airport

Closest report is Sir Seretse Khama International Airport, 34.4 nm (63.8 km) W. Retrieved 2021/06/15 19:00 UTC (7 minutes ago):

FBSK 151900Z 12003KT CAVOK 13/M02 Q1021 NOSIG

Closest aviation forecast (TAF) to Batavia Airport

Forecast is more than 12 hours old.

Closest forecast is Sir Seretse Khama International Airport, 34.4 nm (63.8 km) W. Retrieved 2021/06/15 06:33 UTC (13 hours ago):

TAF TAF FBSK 150400Z 1506/1612 22003KT CAVOK BECMG 1509/1511 03005KT